sensor_id;sensor_type;location;lat;lon;timestamp;temperature;humidity
68177;DHT22;56478;50.982;7.032;2023-02-12T00:00:38;8.25;85.43
68177;DHT22;56478;50.982;7.032;2023-02-12T00:03:04;8.22;85.39
68177;DHT22;56478;50.982;7.032;2023-02-12T00:05:30;8.18;85.62
68177;DHT22;56478;50.982;7.032;2023-02-12T00:07:56;8.17;85.54
68177;DHT22;56478;50.982;7.032;2023-02-12T00:10:22;8.22;85.51
68177;DHT22;56478;50.982;7.032;2023-02-12T00:12:47;8.18;85.71
68177;DHT22;56478;50.982;7.032;2023-02-12T00:15:13;8.22;85.84
68177;DHT22;56478;50.982;7.032;2023-02-12T00:17:38;8.20;85.70
68177;DHT22;56478;50.982;7.032;2023-02-12T00:20:04;8.18;85.80
68177;DHT22;56478;50.982;7.032;2023-02-12T00:22:30;8.21;85.74
68177;DHT22;56478;50.982;7.032;2023-02-12T00:24:56;8.14;85.64
68177;DHT22;56478;50.982;7.032;2023-02-12T00:27:22;8.14;85.96
68177;DHT22;56478;50.982;7.032;2023-02-12T00:29:48;8.14;85.80
68177;DHT22;56478;50.982;7.032;2023-02-12T00:32:13;8.10;85.90
68177;DHT22;56478;50.982;7.032;2023-02-12T00:34:44;8.12;85.74
68177;DHT22;56478;50.982;7.032;2023-02-12T00:37:10;8.17;85.73
68177;DHT22;56478;50.982;7.032;2023-02-12T00:39:36;8.15;85.83
68177;DHT22;56478;50.982;7.032;2023-02-12T00:42:03;8.11;85.77
68177;DHT22;56478;50.982;7.032;2023-02-12T00:44:28;8.10;85.95
68177;DHT22;56478;50.982;7.032;2023-02-12T00:46:54;8.07;86.06
68177;DHT22;56478;50.982;7.032;2023-02-12T00:49:21;8.10;85.91
68177;DHT22;56478;50.982;7.032;2023-02-12T00:51:47;8.10;86.03
68177;DHT22;56478;50.982;7.032;2023-02-12T00:54:13;8.11;86.05
68177;DHT22;56478;50.982;7.032;2023-02-12T00:56:39;8.18;85.60
68177;DHT22;56478;50.982;7.032;2023-02-12T00:59:04;8.20;85.58
68177;DHT22;56478;50.982;7.032;2023-02-12T01:01:30;8.14;85.54
68177;DHT22;56478;50.982;7.032;2023-02-12T01:03:56;8.11;85.67
68177;DHT22;56478;50.982;7.032;2023-02-12T01:06:21;8.08;85.74
68177;DHT22;56478;50.982;7.032;2023-02-12T01:08:51;8.11;85.83
68177;DHT22;56478;50.982;7.032;2023-02-12T01:11:17;8.08;85.87
68177;DHT22;56478;50.982;7.032;2023-02-12T01:13:43;8.07;85.79
68177;DHT22;56478;50.982;7.032;2023-02-12T01:16:20;8.03;85.98
68177;DHT22;56478;50.982;7.032;2023-02-12T01:18:46;7.97;86.03
68177;DHT22;56478;50.982;7.032;2023-02-12T01:23:40;7.94;86.36
68177;DHT22;56478;50.982;7.032;2023-02-12T01:26:06;7.97;86.09
68177;DHT22;56478;50.982;7.032;2023-02-12T01:28:35;7.97;86.23
68177;DHT22;56478;50.982;7.032;2023-02-12T01:31:01;7.98;86.30
68177;DHT22;56478;50.982;7.032;2023-02-12T01:33:29;8.01;86.03
68177;DHT22;56478;50.982;7.032;2023-02-12T01:35:55;8.01;85.97
68177;DHT22;56478;50.982;7.032;2023-02-12T01:38:21;7.97;86.15
68177;DHT22;56478;50.982;7.032;2023-02-12T01:40:46;7.93;85.96
68177;DHT22;56478;50.982;7.032;2023-02-12T01:43:12;7.94;86.07
68177;DHT22;56478;50.982;7.032;2023-02-12T01:45:50;7.94;86.16
68177;DHT22;56478;50.982;7.032;2023-02-12T01:48:19;7.94;86.27
68177;DHT22;56478;50.982;7.032;2023-02-12T01:50:47;7.94;86.36
68177;DHT22;56478;50.982;7.032;2023-02-12T01:53:15;7.93;86.44
68177;DHT22;56478;50.982;7.032;2023-02-12T01:55:49;7.96;86.43
68177;DHT22;56478;50.982;7.032;2023-02-12T01:58:16;8.01;86.40
68177;DHT22;56478;50.982;7.032;2023-02-12T02:00:42;8.03;86.13
68177;DHT22;56478;50.982;7.032;2023-02-12T02:03:08;7.97;86.12
68177;DHT22;56478;50.982;7.032;2023-02-12T02:05:55;7.90;86.35
68177;DHT22;56478;50.982;7.032;2023-02-12T02:08:24;7.93;86.41
68177;DHT22;56478;50.982;7.032;2023-02-12T02:10:50;7.96;86.41
68177;DHT22;56478;50.982;7.032;2023-02-12T02:13:15;7.98;86.28
68177;DHT22;56478;50.982;7.032;2023-02-12T02:16:15;8.01;86.24
68177;DHT22;56478;50.982;7.032;2023-02-12T02:34:28;7.93;86.41
68177;DHT22;56478;50.982;7.032;2023-02-12T02:42:38;7.91;86.27
68177;DHT22;56478;50.982;7.032;2023-02-12T02:45:15;7.91;86.25
68177;DHT22;56478;50.982;7.032;2023-02-12T02:48:04;7.96;86.13
68177;DHT22;56478;50.982;7.032;2023-02-12T02:50:34;8.00;86.06
68177;DHT22;56478;50.982;7.032;2023-02-12T02:53:01;7.97;86.11
68177;DHT22;56478;50.982;7.032;2023-02-12T02:55:36;7.91;86.22
68177;DHT22;56478;50.982;7.032;2023-02-12T02:58:15;7.94;86.10
68177;DHT22;56478;50.982;7.032;2023-02-12T03:01:02;7.94;86.03
68177;DHT22;56478;50.982;7.032;2023-02-12T03:03:47;7.91;86.22
68177;DHT22;56478;50.982;7.032;2023-02-12T03:06:21;7.93;86.34
68177;DHT22;56478;50.982;7.032;2023-02-12T03:08:53;7.91;86.28
68177;DHT22;56478;50.982;7.032;2023-02-12T03:11:27;7.90;86.18
68177;DHT22;56478;50.982;7.032;2023-02-12T03:16:32;7.96;86.05
68177;DHT22;56478;50.982;7.032;2023-02-12T03:19:07;7.94;86.02
68177;DHT22;56478;50.982;7.032;2023-02-12T03:21:45;7.90;86.19
68177;DHT22;56478;50.982;7.032;2023-02-12T03:24:21;8.00;85.71
68177;DHT22;56478;50.982;7.032;2023-02-12T03:26:57;8.04;85.44
68177;DHT22;56478;50.982;7.032;2023-02-12T03:29:23;7.96;85.92
68177;DHT22;56478;50.982;7.032;2023-02-12T03:32:00;7.91;86.03
68177;DHT22;56478;50.982;7.032;2023-02-12T03:34:54;7.94;86.16
68177;DHT22;56478;50.982;7.032;2023-02-12T03:37:35;7.90;86.08
68177;DHT22;56478;50.982;7.032;2023-02-12T03:40:17;7.94;86.08
68177;DHT22;56478;50.982;7.032;2023-02-12T03:43:00;7.96;85.98
68177;DHT22;56478;50.982;7.032;2023-02-12T03:50:44;7.87;86.08
68177;DHT22;56478;50.982;7.032;2023-02-12T03:53:11;7.90;85.90
68177;DHT22;56478;50.982;7.032;2023-02-12T03:55:40;7.90;85.72
68177;DHT22;56478;50.982;7.032;2023-02-12T03:58:08;7.80;86.27
68177;DHT22;56478;50.982;7.032;2023-02-12T04:00:37;7.82;86.07
68177;DHT22;56478;50.982;7.032;2023-02-12T04:03:04;7.94;85.44
68177;DHT22;56478;50.982;7.032;2023-02-12T04:05:29;7.86;85.79
68177;DHT22;56478;50.982;7.032;2023-02-12T04:07:57;7.83;85.97
68177;DHT22;56478;50.982;7.032;2023-02-12T04:10:30;7.86;85.91
68177;DHT22;56478;50.982;7.032;2023-02-12T04:13:20;7.83;86.01
68177;DHT22;56478;50.982;7.032;2023-02-12T04:18:25;7.76;86.38
68177;DHT22;56478;50.982;7.032;2023-02-12T04:20:56;7.85;86.02
68177;DHT22;56478;50.982;7.032;2023-02-12T04:26:28;7.83;85.97
68177;DHT22;56478;50.982;7.032;2023-02-12T04:29:07;7.83;86.02
68177;DHT22;56478;50.982;7.032;2023-02-12T04:31:54;7.85;86.09
68177;DHT22;56478;50.982;7.032;2023-02-12T04:34:26;7.85;86.06
68177;DHT22;56478;50.982;7.032;2023-02-12T04:36:59;7.83;86.03
68177;DHT22;56478;50.982;7.032;2023-02-12T04:39:29;7.86;85.96
68177;DHT22;56478;50.982;7.032;2023-02-12T04:42:02;7.82;86.09
68177;DHT22;56478;50.982;7.032;2023-02-12T04:44:30;7.79;86.03
68177;DHT22;56478;50.982;7.032;2023-02-12T04:46:57;7.82;86.11
68177;DHT22;56478;50.982;7.032;2023-02-12T04:49:23;7.82;86.07
68177;DHT22;56478;50.982;7.032;2023-02-12T04:51:49;7.80;86.07
68177;DHT22;56478;50.982;7.032;2023-02-12T04:54:16;7.80;85.99
68177;DHT22;56478;50.982;7.032;2023-02-12T04:56:42;7.85;85.94
68177;DHT22;56478;50.982;7.032;2023-02-12T04:59:08;7.77;86.07
68177;DHT22;56478;50.982;7.032;2023-02-12T05:01:35;7.82;85.94
68177;DHT22;56478;50.982;7.032;2023-02-12T05:04:02;7.82;85.98
68177;DHT22;56478;50.982;7.032;2023-02-12T05:06:28;7.79;86.09
68177;DHT22;56478;50.982;7.032;2023-02-12T05:08:57;7.76;86.07
68177;DHT22;56478;50.982;7.032;2023-02-12T05:11:22;7.79;86.22
68177;DHT22;56478;50.982;7.032;2023-02-12T05:13:49;7.77;86.02
68177;DHT22;56478;50.982;7.032;2023-02-12T05:16:15;7.80;86.13
68177;DHT22;56478;50.982;7.032;2023-02-12T05:18:42;7.82;86.14
68177;DHT22;56478;50.982;7.032;2023-02-12T05:21:07;7.79;85.98
68177;DHT22;56478;50.982;7.032;2023-02-12T05:23:35;7.76;86.21
68177;DHT22;56478;50.982;7.032;2023-02-12T05:26:02;7.76;86.32
68177;DHT22;56478;50.982;7.032;2023-02-12T05:28:29;7.75;86.21
68177;DHT22;56478;50.982;7.032;2023-02-12T05:30:59;7.75;86.32
68177;DHT22;56478;50.982;7.032;2023-02-12T05:33:25;7.79;86.23
68177;DHT22;56478;50.982;7.032;2023-02-12T05:35:51;7.76;86.16
68177;DHT22;56478;50.982;7.032;2023-02-12T05:38:17;7.76;86.26
68177;DHT22;56478;50.982;7.032;2023-02-12T05:40:43;7.77;86.12
68177;DHT22;56478;50.982;7.032;2023-02-12T05:43:09;7.75;86.24
68177;DHT22;56478;50.982;7.032;2023-02-12T05:45:35;7.80;86.00
68177;DHT22;56478;50.982;7.032;2023-02-12T05:48:02;7.83;85.70
68177;DHT22;56478;50.982;7.032;2023-02-12T05:50:28;7.80;85.90
68177;DHT22;56478;50.982;7.032;2023-02-12T05:52:54;7.87;85.76
68177;DHT22;56478;50.982;7.032;2023-02-12T05:55:20;7.80;86.00
68177;DHT22;56478;50.982;7.032;2023-02-12T05:57:45;7.75;86.32
68177;DHT22;56478;50.982;7.032;2023-02-12T06:00:12;7.72;86.37
68177;DHT22;56478;50.982;7.032;2023-02-12T06:02:38;7.68;86.41
68177;DHT22;56478;50.982;7.032;2023-02-12T06:05:04;7.72;86.24
68177;DHT22;56478;50.982;7.032;2023-02-12T06:07:30;7.70;86.37
68177;DHT22;56478;50.982;7.032;2023-02-12T06:09:55;7.72;86.42
68177;DHT22;56478;50.982;7.032;2023-02-12T06:12:21;7.73;86.40
68177;DHT22;56478;50.982;7.032;2023-02-12T06:14:46;7.82;86.21
68177;DHT22;56478;50.982;7.032;2023-02-12T06:17:12;7.87;85.45
68177;DHT22;56478;50.982;7.032;2023-02-12T06:19:38;7.79;85.82
68177;DHT22;56478;50.982;7.032;2023-02-12T06:22:03;7.65;86.25
68177;DHT22;56478;50.982;7.032;2023-02-12T06:24:29;7.65;86.36
68177;DHT22;56478;50.982;7.032;2023-02-12T06:26:54;7.69;86.34
68177;DHT22;56478;50.982;7.032;2023-02-12T06:29:21;7.63;86.44
68177;DHT22;56478;50.982;7.032;2023-02-12T06:31:47;7.66;86.67
68177;DHT22;56478;50.982;7.032;2023-02-12T06:34:14;7.63;86.74
68177;DHT22;56478;50.982;7.032;2023-02-12T06:36:43;7.62;86.62
68177;DHT22;56478;50.982;7.032;2023-02-12T06:39:10;7.63;86.53
68177;DHT22;56478;50.982;7.032;2023-02-12T06:41:36;7.59;86.70
68177;DHT22;56478;50.982;7.032;2023-02-12T06:44:02;7.56;86.65
68177;DHT22;56478;50.982;7.032;2023-02-12T06:46:27;7.62;86.51
68177;DHT22;56478;50.982;7.032;2023-02-12T06:48:55;7.62;86.58
68177;DHT22;56478;50.982;7.032;2023-02-12T06:51:21;7.66;86.61
68177;DHT22;56478;50.982;7.032;2023-02-12T06:53:48;7.72;86.31
68177;DHT22;56478;50.982;7.032;2023-02-12T06:56:14;7.75;86.18
68177;DHT22;56478;50.982;7.032;2023-02-12T06:58:45;7.76;86.35
68177;DHT22;56478;50.982;7.032;2023-02-12T07:01:16;7.76;86.35
68177;DHT22;56478;50.982;7.032;2023-02-12T07:03:46;7.82;86.06
68177;DHT22;56478;50.982;7.032;2023-02-12T07:06:12;7.76;86.30
68177;DHT22;56478;50.982;7.032;2023-02-12T07:08:38;7.85;85.80
68177;DHT22;56478;50.982;7.032;2023-02-12T07:11:04;7.77;86.06
68177;DHT22;56478;50.982;7.032;2023-02-12T07:13:31;7.83;86.08
68177;DHT22;56478;50.982;7.032;2023-02-12T07:16:09;7.91;85.51
68177;DHT22;56478;50.982;7.032;2023-02-12T07:18:36;7.89;85.84
68177;DHT22;56478;50.982;7.032;2023-02-12T07:21:02;7.93;85.82
68177;DHT22;56478;50.982;7.032;2023-02-12T07:23:28;7.86;85.85
68177;DHT22;56478;50.982;7.032;2023-02-12T07:26:06;7.87;85.94
68177;DHT22;56478;50.982;7.032;2023-02-12T07:28:32;7.96;85.29
68177;DHT22;56478;50.982;7.032;2023-02-12T07:31:02;7.96;85.47
68177;DHT22;56478;50.982;7.032;2023-02-12T07:33:30;7.89;85.79
68177;DHT22;56478;50.982;7.032;2023-02-12T07:35:59;7.94;85.19
68177;DHT22;56478;50.982;7.032;2023-02-12T07:38:25;8.01;85.04
68177;DHT22;56478;50.982;7.032;2023-02-12T07:40:50;7.97;85.04
68177;DHT22;56478;50.982;7.032;2023-02-12T07:43:16;8.00;85.00
68177;DHT22;56478;50.982;7.032;2023-02-12T07:45:41;7.98;85.35
68177;DHT22;56478;50.982;7.032;2023-02-12T07:48:07;8.00;85.27
68177;DHT22;56478;50.982;7.032;2023-02-12T07:50:32;7.97;85.48
68177;DHT22;56478;50.982;7.032;2023-02-12T07:52:58;8.07;84.97
68177;DHT22;56478;50.982;7.032;2023-02-12T07:55:23;7.93;85.51
68177;DHT22;56478;50.982;7.032;2023-02-12T07:57:50;8.00;85.51
68177;DHT22;56478;50.982;7.032;2023-02-12T08:00:15;8.05;85.22
68177;DHT22;56478;50.982;7.032;2023-02-12T08:02:41;8.10;84.91
68177;DHT22;56478;50.982;7.032;2023-02-12T08:05:07;8.01;85.33
68177;DHT22;56478;50.982;7.032;2023-02-12T08:07:32;8.03;85.47
68177;DHT22;56478;50.982;7.032;2023-02-12T08:09:58;8.11;85.04
68177;DHT22;56478;50.982;7.032;2023-02-12T08:12:24;8.29;84.50
68177;DHT22;56478;50.982;7.032;2023-02-12T08:14:49;8.27;84.65
68177;DHT22;56478;50.982;7.032;2023-02-12T08:17:15;8.34;84.77
68177;DHT22;56478;50.982;7.032;2023-02-12T08:19:40;8.41;84.17
68177;DHT22;56478;50.982;7.032;2023-02-12T08:22:06;8.39;84.35
68177;DHT22;56478;50.982;7.032;2023-02-12T08:24:32;8.42;84.17
68177;DHT22;56478;50.982;7.032;2023-02-12T08:26:58;8.48;84.67
68177;DHT22;56478;50.982;7.032;2023-02-12T08:29:28;8.56;84.10
68177;DHT22;56478;50.982;7.032;2023-02-12T08:31:59;8.48;84.19
68177;DHT22;56478;50.982;7.032;2023-02-12T08:34:28;8.56;83.92
68177;DHT22;56478;50.982;7.032;2023-02-12T08:36:54;8.65;83.94
68177;DHT22;56478;50.982;7.032;2023-02-12T08:39:21;8.79;83.22
68177;DHT22;56478;50.982;7.032;2023-02-12T08:41:47;8.79;83.51
68177;DHT22;56478;50.982;7.032;2023-02-12T08:44:14;8.76;83.32
68177;DHT22;56478;50.982;7.032;2023-02-12T08:46:43;8.81;83.42
68177;DHT22;56478;50.982;7.032;2023-02-12T08:49:15;8.88;83.33
68177;DHT22;56478;50.982;7.032;2023-02-12T08:51:44;9.04;82.60
68177;DHT22;56478;50.982;7.032;2023-02-12T08:54:12;9.17;82.32
68177;DHT22;56478;50.982;7.032;2023-02-12T08:56:39;9.21;82.00
68177;DHT22;56478;50.982;7.032;2023-02-12T08:59:06;9.26;81.72
68177;DHT22;56478;50.982;7.032;2023-02-12T09:01:34;9.31;81.86
68177;DHT22;56478;50.982;7.032;2023-02-12T09:04:03;9.42;81.06
68177;DHT22;56478;50.982;7.032;2023-02-12T09:06:32;9.39;81.07
68177;DHT22;56478;50.982;7.032;2023-02-12T09:08:58;9.34;81.48
68177;DHT22;56478;50.982;7.032;2023-02-12T09:11:25;9.42;81.08
68177;DHT22;56478;50.982;7.032;2023-02-12T09:13:59;9.46;80.55
68177;DHT22;56478;50.982;7.032;2023-02-12T09:16:29;9.35;81.36
68177;DHT22;56478;50.982;7.032;2023-02-12T09:18:55;9.45;81.30
68177;DHT22;56478;50.982;7.032;2023-02-12T09:21:21;9.54;81.43
68177;DHT22;56478;50.982;7.032;2023-02-12T09:23:48;9.42;81.53
68177;DHT22;56478;50.982;7.032;2023-02-12T09:26:16;9.39;81.52
68177;DHT22;56478;50.982;7.032;2023-02-12T09:28:42;9.42;81.79
68177;DHT22;56478;50.982;7.032;2023-02-12T09:31:13;9.62;81.22
68177;DHT22;56478;50.982;7.032;2023-02-12T09:33:40;9.70;80.70
68177;DHT22;56478;50.982;7.032;2023-02-12T09:36:08;9.87;80.25
68177;DHT22;56478;50.982;7.032;2023-02-12T09:38:35;9.94;79.61
68177;DHT22;56478;50.982;7.032;2023-02-12T09:47:08;10.04;79.90
68177;DHT22;56478;50.982;7.032;2023-02-12T09:52:47;10.32;79.12
68177;DHT22;56478;50.982;7.032;2023-02-12T09:55:14;10.29;79.22
68177;DHT22;56478;50.982;7.032;2023-02-12T09:57:41;10.25;79.23
68177;DHT22;56478;50.982;7.032;2023-02-12T10:02:37;10.46;77.64
68177;DHT22;56478;50.982;7.032;2023-02-12T10:05:04;10.39;78.12
68177;DHT22;56478;50.982;7.032;2023-02-12T10:13:26;10.74;77.47
68177;DHT22;56478;50.982;7.032;2023-02-12T10:18:59;10.76;76.50
68177;DHT22;56478;50.982;7.032;2023-02-12T10:22:01;11.01;76.19
68177;DHT22;56478;50.982;7.032;2023-02-12T10:27:49;10.87;75.78
68177;DHT22;56478;50.982;7.032;2023-02-12T10:30:39;11.00;75.52
68177;DHT22;56478;50.982;7.032;2023-02-12T10:33:13;11.15;74.80
68177;DHT22;56478;50.982;7.032;2023-02-12T10:35:44;11.01;75.48
68177;DHT22;56478;50.982;7.032;2023-02-12T10:38:18;11.20;74.09
68177;DHT22;56478;50.982;7.032;2023-02-12T10:40:44;11.20;73.89
68177;DHT22;56478;50.982;7.032;2023-02-12T10:43:12;11.16;73.91
68177;DHT22;56478;50.982;7.032;2023-02-12T10:45:39;11.26;73.73
68177;DHT22;56478;50.982;7.032;2023-02-12T10:48:23;11.36;72.75
68177;DHT22;56478;50.982;7.032;2023-02-12T10:53:23;11.33;73.39
68177;DHT22;56478;50.982;7.032;2023-02-12T10:55:49;11.35;73.13
68177;DHT22;56478;50.982;7.032;2023-02-12T10:58:28;11.52;72.43
68177;DHT22;56478;50.982;7.032;2023-02-12T11:00:59;11.42;73.25
68177;DHT22;56478;50.982;7.032;2023-02-12T11:03:32;11.63;71.51
68177;DHT22;56478;50.982;7.032;2023-02-12T11:06:17;11.64;71.26
68177;DHT22;56478;50.982;7.032;2023-02-12T11:08:43;11.78;70.45
68177;DHT22;56478;50.982;7.032;2023-02-12T11:13:45;11.63;71.65
68177;DHT22;56478;50.982;7.032;2023-02-12T11:16:13;11.73;71.89
68177;DHT22;56478;50.982;7.032;2023-02-12T11:18:39;11.92;69.39
68177;DHT22;56478;50.982;7.032;2023-02-12T11:21:08;11.75;71.01
68177;DHT22;56478;50.982;7.032;2023-02-12T11:23:39;11.77;70.80
68177;DHT22;56478;50.982;7.032;2023-02-12T11:26:26;11.88;70.30
68177;DHT22;56478;50.982;7.032;2023-02-12T11:29:04;11.89;69.55
68177;DHT22;56478;50.982;7.032;2023-02-12T11:31:41;12.01;68.43
68177;DHT22;56478;50.982;7.032;2023-02-12T11:34:13;11.91;68.83
68177;DHT22;56478;50.982;7.032;2023-02-12T11:36:48;11.54;70.68
68177;DHT22;56478;50.982;7.032;2023-02-12T11:39:35;11.75;69.66
68177;DHT22;56478;50.982;7.032;2023-02-12T11:42:24;11.80;69.60
68177;DHT22;56478;50.982;7.032;2023-02-12T11:44:53;11.71;70.16
68177;DHT22;56478;50.982;7.032;2023-02-12T11:52:35;11.78;69.74
68177;DHT22;56478;50.982;7.032;2023-02-12T11:55:16;11.78;69.95
68177;DHT22;56478;50.982;7.032;2023-02-12T11:57:47;12.16;68.62
68177;DHT22;56478;50.982;7.032;2023-02-12T12:03:35;11.92;69.60
68177;DHT22;56478;50.982;7.032;2023-02-12T12:05:47;12.12;69.05
68177;DHT22;56478;50.982;7.032;2023-02-12T12:08:22;12.12;69.32
68177;DHT22;56478;50.982;7.032;2023-02-12T12:10:56;12.25;68.92
68177;DHT22;56478;50.982;7.032;2023-02-12T12:13:29;12.22;68.54
68177;DHT22;56478;50.982;7.032;2023-02-12T12:16:06;12.26;68.56
68177;DHT22;56478;50.982;7.032;2023-02-12T12:19:11;12.19;69.45
68177;DHT22;56478;50.982;7.032;2023-02-12T12:22:07;12.34;68.08
68177;DHT22;56478;50.982;7.032;2023-02-12T12:24:52;12.26;69.14
68177;DHT22;56478;50.982;7.032;2023-02-12T12:33:19;12.25;70.36
68177;DHT22;56478;50.982;7.032;2023-02-12T12:38:46;12.09;70.24
68177;DHT22;56478;50.982;7.032;2023-02-12T12:46:39;12.43;68.98
68177;DHT22;56478;50.982;7.032;2023-02-12T12:52:10;12.43;68.83
68177;DHT22;56478;50.982;7.032;2023-02-12T12:54:50;12.64;68.31
68177;DHT22;56478;50.982;7.032;2023-02-12T13:00:11;12.50;68.96
68177;DHT22;56478;50.982;7.032;2023-02-12T13:08:27;12.83;68.35
68177;DHT22;56478;50.982;7.032;2023-02-12T13:11:21;12.71;68.89
68177;DHT22;56478;50.982;7.032;2023-02-12T13:13:53;12.77;68.76
68177;DHT22;56478;50.982;7.032;2023-02-12T13:16:37;12.61;68.66
68177;DHT22;56478;50.982;7.032;2023-02-12T13:19:17;12.46;69.31
68177;DHT22;56478;50.982;7.032;2023-02-12T13:22:49;12.37;70.04
68177;DHT22;56478;50.982;7.032;2023-02-12T13:25:22;12.64;68.65
68177;DHT22;56478;50.982;7.032;2023-02-12T13:27:51;12.81;68.06
68177;DHT22;56478;50.982;7.032;2023-02-12T13:30:26;12.75;68.14
68177;DHT22;56478;50.982;7.032;2023-02-12T13:35:21;12.53;69.84
68177;DHT22;56478;50.982;7.032;2023-02-12T13:37:52;12.37;69.65
68177;DHT22;56478;50.982;7.032;2023-02-12T13:40:27;12.49;70.08
68177;DHT22;56478;50.982;7.032;2023-02-12T13:51:23;12.56;69.81
68177;DHT22;56478;50.982;7.032;2023-02-12T13:56:54;12.26;69.98
68177;DHT22;56478;50.982;7.032;2023-02-12T13:59:40;12.11;71.11
68177;DHT22;56478;50.982;7.032;2023-02-12T14:04:56;12.11;71.22
68177;DHT22;56478;50.982;7.032;2023-02-12T14:07:48;11.85;72.05
68177;DHT22;56478;50.982;7.032;2023-02-12T14:10:26;11.71;72.32
68177;DHT22;56478;50.982;7.032;2023-02-12T14:12:57;11.91;71.88
68177;DHT22;56478;50.982;7.032;2023-02-12T14:15:31;11.84;72.88
68177;DHT22;56478;50.982;7.032;2023-02-12T14:20:33;12.01;71.39
68177;DHT22;56478;50.982;7.032;2023-02-12T14:25:56;11.88;72.31
68177;DHT22;56478;50.982;7.032;2023-02-12T14:28:28;11.87;72.23
68177;DHT22;56478;50.982;7.032;2023-02-12T14:33:46;11.87;72.47
68177;DHT22;56478;50.982;7.032;2023-02-12T14:36:36;11.94;71.76
68177;DHT22;56478;50.982;7.032;2023-02-12T14:41:52;11.88;71.37
68177;DHT22;56478;50.982;7.032;2023-02-12T14:46:56;11.84;72.23
68177;DHT22;56478;50.982;7.032;2023-02-12T14:49:51;11.75;72.18
68177;DHT22;56478;50.982;7.032;2023-02-12T14:52:25;11.66;73.07
68177;DHT22;56478;50.982;7.032;2023-02-12T14:55:00;11.57;73.57
68177;DHT22;56478;50.982;7.032;2023-02-12T14:57:30;11.53;72.94
68177;DHT22;56478;50.982;7.032;2023-02-12T15:02:46;11.59;73.68
68177;DHT22;56478;50.982;7.032;2023-02-12T15:05:36;11.69;72.73
68177;DHT22;56478;50.982;7.032;2023-02-12T15:10:50;11.57;74.63
68177;DHT22;56478;50.982;7.032;2023-02-12T15:22:28;11.59;73.83
68177;DHT22;56478;50.982;7.032;2023-02-12T15:27:42;11.53;73.03
68177;DHT22;56478;50.982;7.032;2023-02-12T15:30:19;11.52;73.17
68177;DHT22;56478;50.982;7.032;2023-02-12T15:32:46;11.57;73.21
68177;DHT22;56478;50.982;7.032;2023-02-12T15:37:48;11.49;74.13
68177;DHT22;56478;50.982;7.032;2023-02-12T15:40:14;11.46;74.21
68177;DHT22;56478;50.982;7.032;2023-02-12T15:48:06;11.43;74.73
68177;DHT22;56478;50.982;7.032;2023-02-12T15:53:21;11.46;74.74
68177;DHT22;56478;50.982;7.032;2023-02-12T15:55:48;11.40;75.26
68177;DHT22;56478;50.982;7.032;2023-02-12T15:58:23;11.50;73.72
68177;DHT22;56478;50.982;7.032;2023-02-12T16:00:50;11.47;73.92
68177;DHT22;56478;50.982;7.032;2023-02-12T16:03:21;11.39;74.09
68177;DHT22;56478;50.982;7.032;2023-02-12T16:05:48;11.36;74.45
68177;DHT22;56478;50.982;7.032;2023-02-12T16:08:16;11.42;73.92
68177;DHT22;56478;50.982;7.032;2023-02-12T16:10:47;11.52;73.38
68177;DHT22;56478;50.982;7.032;2023-02-12T16:13:20;11.47;73.83
68177;DHT22;56478;50.982;7.032;2023-02-12T16:16:03;11.43;73.83
68177;DHT22;56478;50.982;7.032;2023-02-12T16:18:29;11.39;74.15
68177;DHT22;56478;50.982;7.032;2023-02-12T16:23:47;11.35;74.95
68177;DHT22;56478;50.982;7.032;2023-02-12T16:26:18;11.32;74.86
68177;DHT22;56478;50.982;7.032;2023-02-12T16:28:46;11.26;75.27
68177;DHT22;56478;50.982;7.032;2023-02-12T16:31:14;11.22;75.60
68177;DHT22;56478;50.982;7.032;2023-02-12T16:33:43;11.09;75.73
68177;DHT22;56478;50.982;7.032;2023-02-12T16:38:44;11.33;73.79
68177;DHT22;56478;50.982;7.032;2023-02-12T16:46:31;11.15;74.33
68177;DHT22;56478;50.982;7.032;2023-02-12T16:48:57;11.28;73.51
68177;DHT22;56478;50.982;7.032;2023-02-12T16:51:25;11.29;73.42
68177;DHT22;56478;50.982;7.032;2023-02-12T16:53:52;11.20;74.11
68177;DHT22;56478;50.982;7.032;2023-02-12T16:56:20;11.22;73.87
68177;DHT22;56478;50.982;7.032;2023-02-12T16:58:51;11.16;74.43
68177;DHT22;56478;50.982;7.032;2023-02-12T17:01:31;11.20;73.82
68177;DHT22;56478;50.982;7.032;2023-02-12T17:03:59;11.14;74.84
68177;DHT22;56478;50.982;7.032;2023-02-12T17:06:28;11.15;73.87
68177;DHT22;56478;50.982;7.032;2023-02-12T17:08:54;11.07;75.12
68177;DHT22;56478;50.982;7.032;2023-02-12T17:11:20;11.11;75.03
68177;DHT22;56478;50.982;7.032;2023-02-12T17:13:48;11.04;74.82
68177;DHT22;56478;50.982;7.032;2023-02-12T17:16:15;11.08;74.10
68177;DHT22;56478;50.982;7.032;2023-02-12T17:18:41;11.08;74.21
68177;DHT22;56478;50.982;7.032;2023-02-12T17:21:17;11.15;73.73
68177;DHT22;56478;50.982;7.032;2023-02-12T17:23:45;11.14;73.42
68177;DHT22;56478;50.982;7.032;2023-02-12T17:26:10;11.11;73.66
68177;DHT22;56478;50.982;7.032;2023-02-12T17:28:37;11.12;73.53
68177;DHT22;56478;50.982;7.032;2023-02-12T17:31:03;11.07;73.80
68177;DHT22;56478;50.982;7.032;2023-02-12T17:33:31;11.07;73.76
68177;DHT22;56478;50.982;7.032;2023-02-12T17:36:00;10.98;74.76
68177;DHT22;56478;50.982;7.032;2023-02-12T17:38:26;11.04;73.83
68177;DHT22;56478;50.982;7.032;2023-02-12T17:40:51;10.95;74.42
68177;DHT22;56478;50.982;7.032;2023-02-12T17:43:18;10.94;74.51
68177;DHT22;56478;50.982;7.032;2023-02-12T17:45:43;10.91;74.73
68177;DHT22;56478;50.982;7.032;2023-02-12T17:48:10;11.00;74.21
68177;DHT22;56478;50.982;7.032;2023-02-12T17:50:37;11.04;73.77
68177;DHT22;56478;50.982;7.032;2023-02-12T17:53:03;11.08;74.08
68177;DHT22;56478;50.982;7.032;2023-02-12T17:55:29;10.95;74.59
68177;DHT22;56478;50.982;7.032;2023-02-12T17:57:55;10.87;75.57
68177;DHT22;56478;50.982;7.032;2023-02-12T18:00:21;10.81;76.11
68177;DHT22;56478;50.982;7.032;2023-02-12T18:02:49;10.81;75.78
68177;DHT22;56478;50.982;7.032;2023-02-12T18:05:16;10.80;75.38
68177;DHT22;56478;50.982;7.032;2023-02-12T18:07:41;10.76;76.05
68177;DHT22;56478;50.982;7.032;2023-02-12T18:10:08;10.78;76.03
68177;DHT22;56478;50.982;7.032;2023-02-12T18:12:34;10.77;76.50
68177;DHT22;56478;50.982;7.032;2023-02-12T18:15:01;10.73;76.35
68177;DHT22;56478;50.982;7.032;2023-02-12T18:17:27;10.60;77.04
68177;DHT22;56478;50.982;7.032;2023-02-12T18:19:53;10.60;77.34
68177;DHT22;56478;50.982;7.032;2023-02-12T18:22:19;10.63;76.42
68177;DHT22;56478;50.982;7.032;2023-02-12T18:24:45;10.63;76.74
68177;DHT22;56478;50.982;7.032;2023-02-12T18:27:12;10.57;77.22
68177;DHT22;56478;50.982;7.032;2023-02-12T18:29:38;10.55;77.88
68177;DHT22;56478;50.982;7.032;2023-02-12T18:32:04;10.56;77.68
68177;DHT22;56478;50.982;7.032;2023-02-12T18:34:30;10.61;76.82
68177;DHT22;56478;50.982;7.032;2023-02-12T18:36:55;10.61;76.76
68177;DHT22;56478;50.982;7.032;2023-02-12T18:39:22;10.63;76.42
68177;DHT22;56478;50.982;7.032;2023-02-12T18:41:47;10.64;76.43
68177;DHT22;56478;50.982;7.032;2023-02-12T18:44:13;10.66;75.86
68177;DHT22;56478;50.982;7.032;2023-02-12T18:46:39;10.56;76.15